Time;durP1;ratioP1;P1;durP2;ratioP2;P2;SDS_P1;SDS_P2;PMS_P1;PMS_P2;Temp;Humidity;BMP_temperature;BMP_pressure;BME280_temperature;BME280_humidity;BME280_pressure;Samples;Min_cycle;Max_cycle;Signal;HPM_P1;HPM_P2
2023/03/28 00:00:24;;;;;;;;;0.67;0.67;;;;;22.62;34.77;102542.69;5076638;28;45343;-81
2023/03/28 00:02:49;;;;;;;;;1.00;0.00;;;;;22.68;34.26;102548.41;5076735;27;45384;-82
2023/03/28 00:05:16;;;;;;;;;0.67;0.67;;;;;22.60;34.11;102535.84;5076630;28;45264;-82
2023/03/28 00:07:41;;;;;;;;;2.50;0.75;;;;;22.54;34.51;102529.28;5076063;28;47225;-81
2023/03/28 00:10:08;;;;;;;;;0.00;0.00;;;;;22.67;34.45;102549.38;5055197;28;45372;-81
2023/03/28 00:12:34;;;;;;;;;0.00;0.00;;;;;22.66;34.56;102559.16;5076355;27;45373;-82
2023/03/28 00:15:00;;;;;;;;;1.67;0.00;;;;;22.66;34.28;102556.53;5076088;27;45534;-81
2023/03/28 00:17:26;;;;;;;;;2.00;1.00;;;;;22.65;33.82;102554.84;5076172;27;45492;-81
2023/03/28 00:19:52;;;;;;;;;1.00;0.00;;;;;22.64;33.94;102547.84;5075891;28;45348;-82
2023/03/28 00:22:21;;;;;;;;;1.00;1.00;;;;;22.65;34.15;102548.69;5075140;27;45217;-82
2023/03/28 00:24:47;;;;;;;;;1.00;1.00;;;;;22.65;33.48;102543.38;5075891;27;45351;-82
2023/03/28 00:27:14;;;;;;;;;1.00;0.00;;;;;22.52;33.84;102521.50;5075725;28;47033;-81
2023/03/28 00:29:40;;;;;;;;;0.00;0.00;;;;;22.59;33.53;102535.00;5076094;28;45350;-81
2023/03/28 00:32:06;;;;;;;;;3.00;1.00;;;;;22.57;33.79;102528.19;5076074;28;45371;-81
2023/03/28 00:34:32;;;;;;;;;0.33;0.33;;;;;22.62;34.03;102528.59;5075724;27;45427;-81
2023/03/28 00:36:57;;;;;;;;;0.00;0.00;;;;;22.66;33.54;102529.16;5075697;28;45900;-81
2023/03/28 00:39:23;;;;;;;;;1.00;0.00;;;;;22.52;33.83;102513.53;5075647;27;45287;-82
2023/03/28 00:41:48;;;;;;;;;1.00;1.00;;;;;22.58;34.15;102512.13;5075154;27;45288;-81
2023/03/28 00:44:40;;;;;;;;;1.67;1.00;;;;;22.65;33.56;102524.81;5062469;27;45205;-81
2023/03/28 00:47:14;;;;;;;;;1.00;0.00;;;;;22.55;33.64;102501.81;5066792;27;47060;-81
2023/03/28 00:49:41;;;;;;;;;1.00;1.00;;;;;22.63;33.54;102517.84;5075650;28;45376;-81
2023/03/28 00:52:07;;;;;;;;;0.00;0.00;;;;;22.62;33.88;102516.16;5076073;27;45335;-81
2023/03/28 00:54:38;;;;;;;;;0.33;0.33;;;;;22.62;33.73;102516.16;5075552;28;45312;-81
2023/03/28 00:57:06;;;;;;;;;2.00;0.00;;;;;22.57;33.94;102510.44;5075211;27;46209;-81
2023/03/28 00:59:33;;;;;;;;;1.00;1.00;;;;;22.63;33.46;102514.34;5074533;27;45386;-81
2023/03/28 01:01:59;;;;;;;;;1.00;1.00;;;;;22.58;33.90;102506.00;5075242;27;45403;-81
2023/03/28 01:04:35;;;;;;;;;0.00;0.00;;;;;22.54;33.55;102497.47;5075508;27;45299;-81
2023/03/28 01:07:03;;;;;;;;;0.33;0.00;;;;;22.48;33.90;102490.09;5075388;27;46222;-81
2023/03/28 01:09:29;;;;;;;;;0.00;0.00;;;;;22.57;33.82;102505.16;5075501;28;45459;-80
2023/03/28 01:11:56;;;;;;;;;1.33;0.00;;;;;22.60;33.58;102506.66;5075197;28;45397;-81
2023/03/28 01:14:25;;;;;;;;;0.00;0.00;;;;;22.60;34.02;102504.88;5075136;28;45382;-81
2023/03/28 01:16:51;;;;;;;;;0.67;0.00;;;;;22.59;33.95;102497.88;5073517;28;47026;-81
2023/03/28 01:19:35;;;;;;;;;0.00;0.00;;;;;22.59;33.50;102502.34;5075129;27;45300;-80
2023/03/28 01:22:32;;;;;;;;;0.00;0.00;;;;;22.57;33.89;102494.53;5075161;27;45387;-81
2023/03/28 01:25:18;;;;;;;;;0.33;0.33;;;;;22.53;33.91;102487.84;5075124;27;45524;-81
2023/03/28 01:28:04;;;;;;;;;1.00;1.00;;;;;22.57;33.26;102488.38;5071710;28;46082;-81
2023/03/28 01:30:35;;;;;;;;;2.00;0.00;;;;;22.57;33.30;102499.84;5074984;28;45469;-81
2023/03/28 01:33:01;;;;;;;;;1.00;1.00;;;;;22.56;33.26;102492.84;5075301;27;45354;-81
2023/03/28 01:35:40;;;;;;;;;0.00;0.00;;;;;22.51;33.00;102482.69;5074885;28;45530;-81
2023/03/28 01:38:15;;;;;;;;;0.33;0.33;;;;;22.56;33.36;102492.84;5074723;27;45473;-80
2023/03/28 01:40:59;;;;;;;;;0.00;0.00;;;;;22.56;33.56;102492.03;5074975;28;45285;-81
2023/03/28 01:44:09;;;;;;;;;0.00;0.00;;;;;22.56;33.45;102484.88;5068311;28;45514;-81
2023/03/28 01:46:48;;;;;;;;;0.67;0.67;;;;;22.56;33.15;102479.59;5072533;28;45533;-82
2023/03/28 01:49:40;;;;;;;;;1.00;1.00;;;;;22.51;33.26;102485.31;5072622;28;47307;-81
2023/03/28 01:52:19;;;;;;;;;0.75;0.75;;;;;22.56;33.33;102482.25;5073386;28;45467;-81
2023/03/28 01:55:00;;;;;;;;;1.00;1.00;;;;;22.55;33.21;102479.75;5076216;27;45378;-81
2023/03/28 01:57:44;;;;;;;;;1.33;0.00;;;;;22.56;33.37;102476.13;5075977;27;45575;-81
2023/03/28 02:00:20;;;;;;;;;0.25;0.00;;;;;22.47;33.30;102460.09;5076290;28;46324;-82
2023/03/28 02:02:57;;;;;;;;;1.00;0.00;;;;;22.55;33.11;102464.66;5075770;28;45392;-80
2023/03/28 02:05:26;;;;;;;;;0.00;0.00;;;;;22.55;33.37;102463.81;5076097;27;45396;-81
2023/03/28 02:07:53;;;;;;;;;0.00;0.00;;;;;22.55;33.26;102458.53;5076224;27;45562;-81
2023/03/28 02:10:24;;;;;;;;;1.00;1.00;;;;;22.51;33.06;102450.00;5075536;27;46020;-81
2023/03/28 02:12:58;;;;;;;;;0.00;0.00;;;;;22.55;33.52;102440.78;5075370;27;45384;-81
2023/03/28 02:15:25;;;;;;;;;1.00;0.00;;;;;22.46;33.15;102421.25;5074611;28;45436;-81
2023/03/28 02:17:56;;;;;;;;;0.00;0.00;;;;;22.36;33.49;102413.34;5076361;28;45554;-80
2023/03/28 02:20:27;;;;;;;;;3.00;1.75;;;;;22.54;33.57;102431.16;5075506;28;46195;-81
2023/03/28 02:23:01;;;;;;;;;0.00;0.00;;;;;22.51;33.48;102424.31;5069582;27;45555;-81
2023/03/28 02:25:26;;;;;;;;;0.00;0.00;;;;;22.51;33.06;102424.31;5086897;27;45514;-82
2023/03/28 02:27:56;;;;;;;;;0.00;0.00;;;;;22.49;33.02;102413.03;5078318;28;45324;-82
2023/03/28 02:30:22;;;;;;;;;1.00;0.00;;;;;22.51;32.95;102415.53;5078140;27;46398;-81
2023/03/28 02:32:49;;;;;;;;;0.00;0.00;;;;;22.53;32.97;102418.88;5077700;27;45540;-81
2023/03/28 02:35:16;;;;;;;;;1.00;0.67;;;;;22.52;32.85;102410.09;5078369;27;45340;-81
2023/03/28 02:38:08;;;;;;;;;0.33;0.33;;;;;22.52;33.48;102404.78;5077451;28;45474;-81
2023/03/28 02:41:01;;;;;;;;;1.00;0.25;;;;;22.52;32.96;102402.13;5066813;28;46227;-81
2023/03/28 02:43:42;;;;;;;;;0.00;0.00;;;;;22.44;33.36;102385.25;5063368;28;45466;-81
2023/03/28 02:46:22;;;;;;;;;0.00;0.00;;;;;22.51;33.16;102391.66;5077315;27;45470;-81
2023/03/28 02:49:02;;;;;;;;;1.00;0.00;;;;;22.50;32.87;102380.22;5083626;27;45478;-81
2023/03/28 02:51:35;;;;;;;;;0.67;0.67;;;;;22.50;33.16;102377.56;5077199;27;47279;-81
2023/03/28 02:54:18;;;;;;;;;0.00;0.00;;;;;22.50;33.18;102371.44;5087339;27;45342;-81
2023/03/28 02:57:06;;;;;;;;;0.00;0.00;;;;;22.48;33.04;102368.91;5082991;27;45420;-80
2023/03/28 02:59:35;;;;;;;;;0.00;0.00;;;;;22.50;32.50;102374.94;5077044;28;45532;-81
2023/03/28 03:02:01;;;;;;;;;0.00;0.00;;;;;22.45;32.75;102365.72;5077253;27;46433;-81
2023/03/28 03:04:27;;;;;;;;;1.00;1.00;;;;;22.45;33.05;102358.63;5076540;27;45324;-81
2023/03/28 03:06:53;;;;;;;;;0.00;0.00;;;;;22.48;32.52;102371.56;5077102;28;45397;-81
2023/03/28 03:09:18;;;;;;;;;0.67;0.33;;;;;22.48;32.94;102363.59;5077712;27;45569;-81
2023/03/28 03:11:44;;;;;;;;;2.00;0.00;;;;;22.49;33.35;102367.94;5076021;27;47369;-81
2023/03/28 03:14:10;;;;;;;;;1.33;0.67;;;;;22.48;32.94;102379.50;5077404;28;45371;-82
2023/03/28 03:16:37;;;;;;;;;0.00;0.00;;;;;22.45;32.76;102360.44;5078417;27;45392;-81
2023/03/28 03:19:03;;;;;;;;;0.33;0.33;;;;;22.47;33.14;102372.56;5077363;27;45633;-81
2023/03/28 03:21:28;;;;;;;;;0.00;0.00;;;;;22.44;32.67;102361.41;5076650;28;45317;-81
2023/03/28 03:23:53;;;;;;;;;0.67;0.00;;;;;22.48;33.18;102363.59;5072480;27;45264;-80
2023/03/28 03:26:19;;;;;;;;;2.00;2.00;;;;;22.49;33.27;102359.13;5070967;28;45580;-81
2023/03/28 03:28:44;;;;;;;;;1.00;1.00;;;;;22.49;33.13;102356.50;5077171;28;45556;-81
2023/03/28 03:31:10;;;;;;;;;1.00;0.00;;;;;22.50;33.20;102350.22;5079770;27;45986;-81
2023/03/28 03:33:40;;;;;;;;;0.67;0.00;;;;;22.48;32.65;102349.53;5077028;27;45314;-81
2023/03/28 03:36:07;;;;;;;;;0.00;0.00;;;;;22.44;32.88;102334.88;5075794;27;45469;-79
2023/03/28 03:38:33;;;;;;;;;0.00;0.00;;;;;22.50;33.06;102344.91;5057061;28;45409;-79
2023/03/28 03:40:58;;;;;;;;;2.00;0.00;;;;;22.48;32.52;102337.09;5056278;28;47088;-81
2023/03/28 03:43:23;;;;;;;;;0.67;0.67;;;;;22.39;32.86;102327.38;5059978;28;45483;-81
2023/03/28 03:45:49;;;;;;;;;0.33;0.33;;;;;22.48;33.03;102333.63;5037681;28;45402;-81
2023/03/28 03:48:14;;;;;;;;;1.00;1.00;;;;;22.46;32.58;102327.59;5056532;28;45359;-81
2023/03/28 03:50:39;;;;;;;;;0.00;0.00;;;;;22.47;32.77;102332.78;5056130;28;45462;-80
2023/03/28 03:53:05;;;;;;;;;2.33;1.00;;;;;22.48;32.65;102339.72;5056498;28;45329;-81
2023/03/28 03:55:31;;;;;;;;;2.00;0.00;;;;;22.48;32.73;102331.78;5056363;28;45567;-82
2023/03/28 03:57:56;;;;;;;;;1.00;1.00;;;;;22.40;33.11;102318.44;5045364;28;45542;-81
2023/03/28 04:00:22;;;;;;;;;0.67;0.67;;;;;22.47;33.35;102326.63;5055905;28;47190;-80
2023/03/28 04:02:47;;;;;;;;;0.00;0.00;;;;;22.47;32.81;102324.81;5056030;28;45395;-81
2023/03/28 04:05:13;;;;;;;;;1.67;1.00;;;;;22.47;32.84;102327.47;5052370;28;45412;-81
2023/03/28 04:07:38;;;;;;;;;0.00;0.00;;;;;22.36;32.62;102298.47;5055212;28;45597;-79
2023/03/28 04:10:05;;;;;;;;;1.67;1.00;;;;;22.46;32.95;102309.88;5065738;28;45654;-79
2023/03/28 04:12:30;;;;;;;;;1.00;1.00;;;;;22.47;32.47;102319.50;5056081;28;45445;-81
2023/03/28 04:14:56;;;;;;;;;1.00;1.00;;;;;22.46;32.96;102312.53;5056383;28;45469;-80
2023/03/28 04:17:22;;;;;;;;;1.33;0.33;;;;;22.47;32.77;102323.97;5055478;28;45215;-81
2023/03/28 04:19:48;;;;;;;;;0.33;0.33;;;;;22.41;33.14;102309.47;5055859;28;45986;-81
2023/03/28 04:22:16;;;;;;;;;0.00;0.00;;;;;22.45;32.54;102315.34;5055901;28;45414;-81
2023/03/28 04:24:43;;;;;;;;;0.00;0.00;;;;;22.46;32.78;102314.34;5057750;28;45348;-81
2023/03/28 04:27:09;;;;;;;;;1.00;1.00;;;;;22.45;32.81;102318.84;5055564;28;45386;-81
2023/03/28 04:29:35;;;;;;;;;0.00;0.00;;;;;22.36;33.03;102307.28;5055937;28;46180;-81
2023/03/28 04:32:04;;;;;;;;;0.00;0.00;;;;;22.46;32.58;102324.94;5047499;28;45322;-81
2023/03/28 04:34:30;;;;;;;;;0.00;0.00;;;;;22.43;32.46;102318.13;5055400;28;45364;-81
2023/03/28 04:37:00;;;;;;;;;0.00;0.00;;;;;22.40;32.81;102313.94;5063773;27;45338;-79
2023/03/28 04:39:30;;;;;;;;;1.00;1.00;;;;;22.23;33.17;102286.41;5075719;28;47116;-81
2023/03/28 04:41:55;;;;;;;;;1.00;1.00;;;;;22.46;32.87;102333.75;5091339;27;45433;-81
2023/03/28 04:44:22;;;;;;;;;0.33;0.00;;;;;22.37;32.82;102313.44;5063028;27;45406;-81
2023/03/28 04:46:49;;;;;;;;;2.00;0.67;;;;;22.43;32.39;102317.31;5075555;27;45519;-81
2023/03/28 04:49:15;;;;;;;;;1.00;0.00;;;;;22.46;32.54;102327.59;5074897;27;47135;-81
2023/03/28 04:51:40;;;;;;;;;0.67;0.67;;;;;22.33;32.32;102298.81;5075962;28;45359;-81
2023/03/28 04:54:06;;;;;;;;;1.00;1.00;;;;;22.45;32.92;102318.84;5075406;27;45383;-81
2023/03/28 04:56:32;;;;;;;;;1.00;1.00;;;;;22.37;32.54;102302.81;5075933;27;45339;-81
2023/03/28 04:58:57;;;;;;;;;1.00;1.00;;;;;22.40;32.71;102316.59;5075462;28;46775;-82
2023/03/28 05:01:24;;;;;;;;;1.67;1.00;;;;;22.33;32.36;102285.53;5075798;28;45355;-81
2023/03/28 05:03:50;;;;;;;;;2.00;0.00;;;;;22.44;32.97;102305.69;5075343;28;45313;-81
2023/03/28 05:06:16;;;;;;;;;0.00;0.00;;;;;22.45;32.98;102305.56;5075347;28;45581;-81
2023/03/28 05:08:42;;;;;;;;;2.00;2.00;;;;;22.46;32.68;102301.91;5075312;27;46304;-81
2023/03/28 05:11:08;;;;;;;;;1.00;1.00;;;;;22.46;32.71;102306.38;5075391;27;45501;-81
2023/03/28 05:13:34;;;;;;;;;0.33;0.33;;;;;22.37;32.35;102284.25;5075701;28;45564;-81
2023/03/28 05:15:59;;;;;;;;;0.00;0.00;;;;;22.45;32.34;102300.28;5075323;28;45269;-81
2023/03/28 05:18:25;;;;;;;;;0.00;0.00;;;;;22.45;33.01;102299.44;5074802;27;46246;-81
2023/03/28 05:20:50;;;;;;;;;1.00;1.00;;;;;22.38;32.83;102288.56;5075398;28;45332;-81
2023/03/28 05:23:15;;;;;;;;;1.00;1.00;;;;;22.43;32.33;102296.09;5075433;27;45378;-82
2023/03/28 05:25:41;;;;;;;;;1.00;1.00;;;;;22.43;32.35;102296.09;5083768;27;45414;-81
2023/03/28 05:28:06;;;;;;;;;1.00;1.00;;;;;22.43;32.66;102296.91;5077083;27;45640;-81
2023/03/28 05:30:32;;;;;;;;;1.00;1.00;;;;;22.43;32.22;102299.56;5078619;28;45166;-81
2023/03/28 05:32:58;;;;;;;;;2.00;1.00;;;;;22.43;32.44;102304.88;5083266;27;45490;-80
2023/03/28 05:35:24;;;;;;;;;0.00;0.00;;;;;22.35;32.56;102295.00;5079066;28;45374;-82
2023/03/28 05:37:50;;;;;;;;;1.00;1.00;;;;;22.43;32.19;102301.41;5078071;27;46103;-82
2023/03/28 05:40:15;;;;;;;;;1.00;0.00;;;;;22.44;32.21;102292.44;5078809;27;45405;-82
2023/03/28 05:42:41;;;;;;;;;2.00;1.00;;;;;22.42;32.26;102291.75;5092730;27;45284;-82
2023/03/28 05:45:08;;;;;;;;;0.00;0.00;;;;;22.32;32.44;102283.88;5076662;27;45844;-82
2023/03/28 05:47:35;;;;;;;;;1.00;0.00;;;;;22.36;32.37;102295.84;5078080;27;46188;-81
2023/03/28 05:50:00;;;;;;;;;1.00;1.00;;;;;22.43;32.75;102307.50;5078829;28;45543;-81
2023/03/28 05:52:26;;;;;;;;;1.00;1.00;;;;;22.43;32.63;102304.88;5078516;27;45391;-82
2023/03/28 05:54:51;;;;;;;;;0.67;0.67;;;;;22.29;32.17;102279.69;5079259;27;45226;-82
2023/03/28 05:57:17;;;;;;;;;0.00;0.00;;;;;22.42;32.28;102302.38;5078225;27;46135;-82
2023/03/28 05:59:43;;;;;;;;;0.67;0.67;;;;;22.43;32.78;102307.50;5078242;28;45307;-82
2023/03/28 06:02:13;;;;;;;;;2.75;1.00;;;;;22.39;32.91;102303.50;5081408;27;45350;-82
2023/03/28 06:04:38;;;;;;;;;1.00;1.00;;;;;22.40;32.36;102306.00;5079002;28;45476;-82
2023/03/28 06:07:05;;;;;;;;;1.67;1.00;;;;;22.39;32.73;102320.25;5078156;27;46161;-82
2023/03/28 06:09:30;;;;;;;;;0.75;0.75;;;;;22.35;32.29;102302.94;5078389;28;45410;-82
2023/03/28 06:11:59;;;;;;;;;1.00;1.00;;;;;22.34;32.81;102300.44;5077912;27;45439;-83
2023/03/28 06:14:24;;;;;;;;;0.00;0.00;;;;;22.39;32.16;102298.19;5078603;27;45434;-81
2023/03/28 06:16:50;;;;;;;;;1.00;1.00;;;;;22.41;32.68;102304.19;5076742;27;47100;-81
2023/03/28 06:19:15;;;;;;;;;1.67;0.00;;;;;22.38;32.35;102293.84;5077960;27;45258;-76
2023/03/28 06:21:40;;;;;;;;;0.67;0.67;;;;;22.43;32.53;102312.81;5077875;27;45400;-76
2023/03/28 06:24:06;;;;;;;;;0.00;0.00;;;;;22.40;32.36;102305.19;5078091;27;45321;-76
2023/03/28 06:26:31;;;;;;;;;2.00;0.00;;;;;22.41;32.88;102312.13;5067513;27;45850;-76
2023/03/28 06:28:56;;;;;;;;;0.00;0.00;;;;;22.38;32.48;102307.97;5078025;27;45373;-76
2023/03/28 06:31:22;;;;;;;;;0.67;0.67;;;;;22.37;32.52;102308.97;5076887;27;45452;-75
2023/03/28 06:33:47;;;;;;;;;1.33;1.33;;;;;22.36;32.68;102304.63;5077012;27;45303;-76
2023/03/28 06:36:12;;;;;;;;;0.00;0.00;;;;;22.35;33.18;102310.91;5076773;27;46187;-77
2023/03/28 06:38:38;;;;;;;;;0.00;0.00;;;;;22.35;32.70;102302.94;5070051;27;45318;-75
2023/03/28 06:41:04;;;;;;;;;0.67;0.67;;;;;22.33;33.07;102306.75;5076463;28;45365;-75
2023/03/28 06:43:32;;;;;;;;;1.00;1.00;;;;;22.26;32.62;102309.13;5077100;27;45503;-88
2023/03/28 06:45:57;;;;;;;;;1.00;1.00;;;;;22.34;32.36;102324.31;5076761;27;47257;-76
2023/03/28 06:48:29;;;;;;;;;2.00;2.00;;;;;22.29;32.45;102308.84;5077532;28;45417;-85
2023/03/28 06:50:55;;;;;;;;;0.00;0.00;;;;;22.33;33.24;102307.56;5057794;27;46045;-80
2023/03/28 06:53:20;;;;;;;;;1.50;1.00;;;;;22.39;32.43;102307.00;5051544;28;46696;-79
2023/03/28 06:55:48;;;;;;;;;2.00;1.00;;;;;22.40;33.17;102300.69;5070647;27;47936;-79
2023/03/28 06:58:13;;;;;;;;;2.00;1.00;;;;;22.38;33.16;102297.34;5072794;28;45869;-80
2023/03/28 07:00:39;;;;;;;;;2.00;1.00;;;;;22.43;32.39;102296.91;5072553;27;45651;-80
2023/03/28 07:03:04;;;;;;;;;0.67;0.67;;;;;22.43;32.77;102302.22;5072891;27;45817;-80
2023/03/28 07:05:29;;;;;;;;;1.00;1.00;;;;;22.39;32.92;102303.50;5074449;27;46258;-80
2023/03/28 07:07:55;;;;;;;;;2.00;1.00;;;;;22.46;33.20;102303.72;5072596;27;45534;-79
2023/03/28 07:10:21;;;;;;;;;1.00;1.00;;;;;22.47;33.18;102302.75;5073445;27;45453;-80
2023/03/28 07:12:46;;;;;;;;;1.00;1.00;;;;;22.37;33.11;102285.09;5071321;28;45625;-79
2023/03/28 07:15:12;;;;;;;;;1.00;1.00;;;;;22.47;33.26;102300.94;5072350;27;45509;-80
2023/03/28 07:17:38;;;;;;;;;1.33;0.33;;;;;22.42;32.92;102292.59;5073603;28;45905;-79
2023/03/28 07:20:03;;;;;;;;;1.00;1.00;;;;;22.51;32.59;102293.50;5070976;27;45948;-80
2023/03/28 07:22:30;;;;;;;;;1.00;1.00;;;;;22.52;32.52;102290.72;5071580;28;45651;-80
2023/03/28 07:24:55;;;;;;;;;0.33;0.33;;;;;22.48;32.99;102284.03;5072282;27;46501;-81
2023/03/28 07:27:20;;;;;;;;;1.00;1.00;;;;;22.57;33.13;102289.44;5071960;28;46673;-77
2023/03/28 07:29:46;;;;;;;;;1.00;1.00;;;;;22.58;32.83;102281.34;5072147;27;45698;-77
2023/03/28 07:32:11;;;;;;;;;2.00;1.00;;;;;22.49;32.84;102267.16;5072325;27;45538;-80
2023/03/28 07:34:37;;;;;;;;;1.00;1.00;;;;;22.58;32.52;102276.03;5072553;27;46033;-77
2023/03/28 07:37:02;;;;;;;;;1.00;1.00;;;;;22.60;32.73;102279.38;5071907;28;45411;-80
2023/03/28 07:39:28;;;;;;;;;1.00;1.00;;;;;22.59;32.64;102276.84;5071349;28;45293;-80
2023/03/28 07:41:53;;;;;;;;;0.33;0.33;;;;;22.59;32.93;102275.03;5071450;27;45509;-80
2023/03/28 07:44:19;;;;;;;;;1.67;1.00;;;;;22.58;32.97;102273.41;5070959;27;45988;-79
2023/03/28 07:46:45;;;;;;;;;2.00;1.00;;;;;22.51;32.65;102265.19;5071244;27;45539;-78
2023/03/28 07:49:11;;;;;;;;;3.00;2.00;;;;;22.56;32.42;102278.00;5072231;28;45404;-78
2023/03/28 07:51:37;;;;;;;;;1.00;1.00;;;;;22.54;32.78;102271.16;5071838;28;46142;-80
2023/03/28 07:54:03;;;;;;;;;1.00;1.00;;;;;22.54;32.99;102282.63;5071454;28;46152;-81
2023/03/28 07:56:29;;;;;;;;;2.00;0.00;;;;;22.55;32.64;102296.72;5070073;28;45406;-80
2023/03/28 07:58:55;;;;;;;;;1.00;1.00;;;;;22.55;32.70;102284.28;5071214;27;45431;-80
2023/03/28 08:01:21;;;;;;;;;0.00;0.00;;;;;22.54;32.78;102290.56;5071929;28;45513;-82
2023/03/28 08:03:47;;;;;;;;;1.33;0.00;;;;;22.54;32.97;102289.72;5069389;27;47133;-79
2023/03/28 08:06:14;;;;;;;;;0.67;0.67;;;;;22.53;32.47;102283.63;5071378;27;45867;-78
2023/03/28 08:08:39;;;;;;;;;2.67;1.33;;;;;22.54;32.69;102282.63;5071273;28;45553;-77
2023/03/28 08:11:05;;;;;;;;;2.00;2.00;;;;;22.53;32.18;102286.28;5070867;28;45329;-78
2023/03/28 08:13:30;;;;;;;;;5.00;4.00;;;;;22.52;32.28;102280.13;5071148;28;47266;-78
2023/03/28 08:15:56;;;;;;;;;1.33;0.33;;;;;22.54;32.34;102279.13;5071203;27;45519;-77
2023/03/28 08:18:24;;;;;;;;;1.00;1.00;;;;;22.55;32.42;102270.19;5070972;28;45340;-78
2023/03/28 08:20:57;;;;;;;;;1.00;1.00;;;;;22.54;32.66;102271.16;5070334;27;45569;-77
2023/03/28 08:23:22;;;;;;;;;1.33;1.33;;;;;22.48;32.50;102267.31;5070642;27;47197;-77
2023/03/28 08:25:48;;;;;;;;;1.67;1.67;;;;;22.47;32.35;102261.16;5070613;28;45882;-78
2023/03/28 08:28:13;;;;;;;;;2.33;0.33;;;;;22.56;32.76;102264.72;5070806;28;45889;-75
2023/03/28 08:30:38;;;;;;;;;1.00;1.00;;;;;22.56;32.35;102272.69;5071355;28;45537;-78
2023/03/28 08:33:04;;;;;;;;;1.25;1.25;;;;;22.51;32.31;102264.34;5070842;27;45804;-77
2023/03/28 08:35:32;;;;;;;;;1.00;1.00;;;;;22.57;32.83;102261.09;5070843;28;45508;-77
2023/03/28 08:37:58;;;;;;;;;1.00;1.00;;;;;22.57;32.69;102257.63;5070556;28;45410;-75
2023/03/28 08:40:27;;;;;;;;;2.00;2.00;;;;;22.55;32.38;102255.13;5070474;27;45546;-78
2023/03/28 08:43:22;;;;;;;;;0.25;0.25;;;;;22.57;32.81;102245.19;5069955;28;46437;-77
2023/03/28 08:45:56;;;;;;;;;2.00;2.00;;;;;22.57;32.80;102242.53;5071015;27;45438;-78
2023/03/28 08:48:36;;;;;;;;;1.33;1.00;;;;;22.56;32.33;102240.03;5068957;28;45958;-78
2023/03/28 08:51:11;;;;;;;;;1.33;1.33;;;;;22.58;32.58;102235.41;5070565;27;45336;-76
2023/03/28 08:53:42;;;;;;;;;1.00;1.00;;;;;22.56;32.27;102232.09;5069528;27;47383;-77
2023/03/28 08:56:08;;;;;;;;;1.00;1.00;;;;;22.53;32.34;102227.91;5070669;27;45824;-78
2023/03/28 08:58:48;;;;;;;;;1.00;1.00;;;;;22.58;32.33;102225.66;5070627;27;46068;-78
2023/03/28 09:01:15;;;;;;;;;2.00;1.00;;;;;22.47;32.36;102217.91;5067785;28;45635;-78
2023/03/28 09:03:40;;;;;;;;;1.00;1.00;;;;;22.57;32.77;102231.09;5069965;27;46163;-79
2023/03/28 09:06:12;;;;;;;;;1.00;1.00;;;;;22.59;32.76;102237.91;5070838;27;45379;-78
2023/03/28 09:08:39;;;;;;;;;1.00;1.00;;;;;22.60;32.60;102233.44;5070524;28;45447;-78
2023/03/28 09:11:18;;;;;;;;;1.67;1.00;;;;;22.59;32.49;102223.81;5070939;28;45532;-78
2023/03/28 09:14:02;;;;;;;;;1.00;1.00;;;;;22.59;32.80;102232.59;5070227;28;45555;-76
2023/03/28 09:16:36;;;;;;;;;1.33;1.33;;;;;22.60;32.53;102234.28;5070218;28;46545;-78
2023/03/28 09:19:20;;;;;;;;;1.33;1.33;;;;;22.60;32.77;102233.44;5070041;28;45500;-79
2023/03/28 09:22:10;;;;;;;;;1.67;1.00;;;;;22.60;32.60;102225.50;5067813;28;45477;-78
2023/03/28 09:25:08;;;;;;;;;1.00;1.00;;;;;22.57;32.23;102205.41;5069920;28;45744;-78
2023/03/28 09:28:06;;;;;;;;;1.00;1.00;;;;;22.61;32.39;102201.44;5027077;28;45570;-77
2023/03/28 09:30:34;;;;;;;;;0.00;0.00;;;;;22.62;32.48;102207.59;5027519;28;45786;-78
2023/03/28 09:33:04;;;;;;;;;2.00;1.00;;;;;22.57;32.47;102196.59;5027127;28;45515;-78
2023/03/28 09:35:31;;;;;;;;;1.00;1.00;;;;;22.64;31.86;102197.66;5027046;28;46376;-78
2023/03/28 09:38:05;;;;;;;;;1.00;1.00;;;;;22.66;31.96;102208.13;5026464;28;45538;-77
2023/03/28 09:40:34;;;;;;;;;1.67;1.00;;;;;22.62;32.20;102191.69;5026839;28;45597;-78
2023/03/28 09:43:39;;;;;;;;;2.67;1.67;;;;;22.66;31.88;102195.72;5026856;28;45458;-77
2023/03/28 09:46:08;;;;;;;;;1.00;1.00;;;;;22.67;31.74;102209.78;5026058;28;46226;-77
2023/03/28 09:48:38;;;;;;;;;2.00;2.00;;;;;22.66;32.04;102195.72;5026718;28;45523;-76
2023/03/28 09:51:10;;;;;;;;;1.00;1.00;;;;;22.68;32.57;102198.19;5026806;28;45374;-76
2023/03/28 09:53:36;;;;;;;;;1.00;1.00;;;;;22.68;32.41;102195.56;5027469;28;45420;-75
2023/03/28 09:56:07;;;;;;;;;1.00;1.00;;;;;22.67;32.10;102189.41;5022239;28;45600;-78
2023/03/28 09:58:53;;;;;;;;;1.67;1.67;;;;;22.61;32.04;102180.22;5011908;28;45573;-78
2023/03/28 10:01:43;;;;;;;;;0.00;0.00;;;;;22.68;32.21;102182.28;5025130;28;45488;-78
2023/03/28 10:04:31;;;;;;;;;2.00;0.67;;;;;22.67;32.35;102180.59;5038412;28;45674;-79
2023/03/28 10:07:35;;;;;;;;;0.00;0.00;;;;;22.62;32.50;102189.03;5071083;27;46283;-78
2023/03/28 10:10:15;;;;;;;;;1.00;1.00;;;;;22.65;31.99;102193.19;5069011;28;45759;-76
2023/03/28 10:12:42;;;;;;;;;1.00;1.00;;;;;22.65;31.93;102185.25;5065534;28;45399;-78
2023/03/28 10:15:29;;;;;;;;;0.67;0.67;;;;;22.65;32.34;102187.88;5073439;27;45536;-79
2023/03/28 10:17:54;;;;;;;;;2.00;0.00;;;;;22.51;32.38;102169.69;5073249;28;46672;-79
2023/03/28 10:20:21;;;;;;;;;1.00;1.00;;;;;22.63;32.44;102174.78;5072607;27;45412;-78
2023/03/28 10:22:50;;;;;;;;;1.00;0.00;;;;;22.62;31.82;102163.34;5072439;27;45709;-78
2023/03/28 10:25:34;;;;;;;;;1.00;1.00;;;;;22.59;31.86;102155.69;5072887;27;45435;-76
2023/03/28 10:27:59;;;;;;;;;1.00;1.00;;;;;22.52;32.11;102138.72;5072693;27;46215;-78
2023/03/28 10:30:30;;;;;;;;;1.00;1.00;;;;;22.58;32.39;102145.22;5073295;28;45411;-77
2023/03/28 10:33:14;;;;;;;;;1.33;1.00;;;;;22.60;32.26;102159.16;5072556;27;45396;-78
2023/03/28 10:35:43;;;;;;;;;1.75;0.75;;;;;22.59;31.80;102144.22;5070852;28;45538;-78
2023/03/28 10:38:14;;;;;;;;;3.00;0.00;;;;;22.59;32.23;102145.06;5071915;27;45557;-78
2023/03/28 10:40:40;;;;;;;;;1.33;0.00;;;;;22.54;31.90;102128.78;5072762;28;45440;-78
2023/03/28 10:43:15;;;;;;;;;2.00;2.00;;;;;22.58;32.41;102132.81;5072595;28;45691;-77
2023/03/28 10:45:45;;;;;;;;;1.00;1.00;;;;;22.59;31.66;102137.13;5072700;28;45580;-78
2023/03/28 10:48:15;;;;;;;;;1.00;1.00;;;;;22.61;32.17;102137.78;5072415;28;45398;-79
2023/03/28 10:51:07;;;;;;;;;2.33;1.00;;;;;22.56;31.95;102121.50;5071620;27;46455;-79
2023/03/28 10:53:54;;;;;;;;;3.00;1.33;;;;;22.64;31.55;102123.38;5071936;28;45612;-78
2023/03/28 10:56:32;;;;;;;;;1.00;1.00;;;;;22.62;31.98;102115.59;5072122;27;45411;-78
2023/03/28 10:59:06;;;;;;;;;0.33;0.33;;;;;22.63;31.55;102096.06;5072386;27;47019;-78
2023/03/28 11:01:49;;;;;;;;;0.00;0.00;;;;;22.64;31.64;102083.59;5071917;28;45527;-79
2023/03/28 11:04:32;;;;;;;;;0.00;0.00;;;;;22.62;32.32;102078.47;5070225;27;45385;-78
2023/03/28 11:07:10;;;;;;;;;1.00;1.00;;;;;22.64;31.90;102091.56;5071816;28;45622;-78
2023/03/28 11:10:00;;;;;;;;;1.00;1.00;;;;;22.63;31.98;102101.34;5072598;27;45446;-78
2023/03/28 11:12:59;;;;;;;;;1.00;1.00;;;;;22.65;32.20;102113.63;5072088;28;45403;-78
2023/03/28 11:15:55;;;;;;;;;1.00;1.00;;;;;22.65;31.76;102119.75;5071916;27;45744;-78
2023/03/28 11:18:41;;;;;;;;;1.00;1.00;;;;;22.65;31.86;102119.75;5071708;28;45993;-78
2023/03/28 11:21:31;;;;;;;;;0.00;0.00;;;;;22.56;32.08;102102.13;5068972;28;45499;-79
2023/03/28 11:24:51;;;;;;;;;0.00;0.00;;;;;22.63;32.16;102098.69;5071800;28;45749;-77
2023/03/28 11:27:25;;;;;;;;;1.00;1.00;;;;;22.62;31.23;102083.75;5046688;28;45510;-79
2023/03/28 11:29:56;;;;;;;;;1.33;1.00;;;;;22.59;32.00;102078.75;5048849;28;45486;-78
2023/03/28 11:32:37;;;;;;;;;1.67;1.67;;;;;22.62;31.49;102074.97;5048520;28;46361;-78
2023/03/28 11:35:27;;;;;;;;;0.00;0.00;;;;;22.58;31.70;102073.63;5048708;28;45951;-79
2023/03/28 11:37:55;;;;;;;;;3.00;0.33;;;;;22.62;31.88;102078.47;5046386;28;45521;-79
2023/03/28 11:40:30;;;;;;;;;1.33;0.67;;;;;22.63;31.94;102081.94;5048983;28;45466;-78